createdAt,value
2023-01-26T00:01:30.094Z,51.25
2023-01-26T00:03:58.032Z,51.83
2023-01-26T00:06:26.326Z,56.90
2023-01-26T00:08:55.570Z,52.42
2023-01-26T00:11:27.229Z,51.80
2023-01-26T00:13:55.825Z,43.88
2023-01-26T00:16:23.397Z,44.65
2023-01-26T00:18:50.479Z,45.50
2023-01-26T00:21:20.803Z,46.53
2023-01-26T00:23:49.399Z,48.17
2023-01-26T00:26:26.848Z,47.53
2023-01-26T00:28:54.367Z,45.72
2023-01-26T00:31:23.517Z,45.00
2023-01-26T00:33:52.012Z,39.40
2023-01-26T00:36:19.646Z,40.17
2023-01-26T00:38:47.270Z,45.75
2023-01-26T00:41:34.711Z,44.15
2023-01-26T00:44:02.539Z,44.20
2023-01-26T00:46:29.965Z,42.63
2023-01-26T00:48:57.576Z,37.08
2023-01-26T00:51:24.634Z,38.55
2023-01-26T00:53:51.742Z,59.22
2023-01-26T00:56:19.437Z,47.20
2023-01-26T00:58:46.811Z,42.08
2023-01-26T01:01:13.932Z,44.28
2023-01-26T01:03:43.168Z,37.67
2023-01-26T01:06:10.509Z,37.55
2023-01-26T01:08:37.599Z,36.88
2023-01-26T01:11:10.029Z,35.25
2023-01-26T01:13:37.317Z,35.88
2023-01-26T01:16:13.872Z,34.88
2023-01-26T01:18:42.053Z,33.80
2023-01-26T01:21:11.200Z,34.97
2023-01-26T01:23:38.676Z,33.50
2023-01-26T01:26:06.792Z,34.47
2023-01-26T01:28:35.103Z,28.42
2023-01-26T01:31:07.367Z,33.22
2023-01-26T01:33:36.184Z,28.40
2023-01-26T01:36:06.255Z,31.50
2023-01-26T01:38:33.942Z,30.95
2023-01-26T01:41:01.197Z,27.75
2023-01-26T01:43:29.321Z,33.95
2023-01-26T01:45:58.053Z,31.60
2023-01-26T01:48:47.493Z,31.73
2023-01-26T01:51:28.341Z,32.17
2023-01-26T01:53:59.935Z,30.77
2023-01-26T01:56:29.746Z,31.03
2023-01-26T01:59:00.097Z,29.95
2023-01-26T02:01:28.004Z,32.17
2023-01-26T02:03:58.347Z,37.00
2023-01-26T02:06:46.295Z,31.08
2023-01-26T02:09:34.317Z,34.50
2023-01-26T02:12:03.631Z,33.55
2023-01-26T02:14:33.245Z,32.60
2023-01-26T02:17:00.544Z,32.47
2023-01-26T02:19:33.108Z,31.33
2023-01-26T02:22:08.671Z,32.65
2023-01-26T02:24:39.024Z,32.70
2023-01-26T02:27:06.657Z,31.58
2023-01-26T02:29:34.219Z,30.13
2023-01-26T02:32:01.327Z,33.42
2023-01-26T02:34:29.021Z,35.75
2023-01-26T02:37:00.775Z,33.17
2023-01-26T02:39:53.540Z,25.45
2023-01-26T02:42:38.814Z,30.77
2023-01-26T02:45:07.324Z,33.58
2023-01-26T02:47:34.535Z,41.92
2023-01-26T02:50:04.501Z,59.20
2023-01-26T02:52:31.823Z,57.95
2023-01-26T02:55:22.630Z,68.88
2023-01-26T02:57:51.666Z,61.72
2023-01-26T03:00:22.629Z,43.42
2023-01-26T03:02:53.556Z,42.78
2023-01-26T03:05:20.894Z,40.08
2023-01-26T03:07:48.117Z,39.88
2023-01-26T03:10:18.817Z,36.55
2023-01-26T03:12:46.479Z,38.80
2023-01-26T03:15:32.243Z,39.47
2023-01-26T03:18:27.021Z,35.40
2023-01-26T03:21:12.688Z,39.95
2023-01-26T03:23:58.150Z,35.83
2023-01-26T03:26:45.578Z,41.40
2023-01-26T03:29:13.091Z,37.22
2023-01-26T03:31:42.040Z,38.10
2023-01-26T03:34:09.464Z,35.70
2023-01-26T03:36:38.099Z,42.72
2023-01-26T03:41:55.042Z,37.65
2023-01-26T03:44:40.917Z,38.72
2023-01-26T03:47:27.560Z,40.90
2023-01-26T03:50:13.451Z,37.75
2023-01-26T03:52:59.405Z,38.67
2023-01-26T03:55:44.988Z,34.05
2023-01-26T03:58:13.487Z,37.83
2023-01-26T04:00:40.600Z,31.50
2023-01-26T04:03:26.227Z,33.97
2023-01-26T04:06:17.359Z,34.38
2023-01-26T04:08:48.412Z,31.83
2023-01-26T04:11:15.543Z,32.40
2023-01-26T04:14:01.439Z,32.38
2023-01-26T04:16:52.525Z,29.30
2023-01-26T04:19:38.745Z,29.65
2023-01-26T04:22:07.230Z,32.65
2023-01-26T04:24:35.960Z,34.30
2023-01-26T04:27:04.167Z,36.45
2023-01-26T04:29:36.119Z,29.40
2023-01-26T04:32:03.378Z,31.05
2023-01-26T04:34:32.642Z,26.73
2023-01-26T04:37:00.770Z,27.58
2023-01-26T04:39:36.329Z,26.17
2023-01-26T04:42:05.369Z,27.65
2023-01-26T04:44:32.654Z,25.50
2023-01-26T04:46:59.868Z,26.23
2023-01-26T04:49:28.063Z,30.08
2023-01-26T04:51:55.848Z,22.77
2023-01-26T04:54:23.198Z,29.05
2023-01-26T04:56:54.604Z,24.23
2023-01-26T04:59:22.019Z,28.58
2023-01-26T05:01:49.532Z,31.17
2023-01-26T05:04:16.736Z,25.05
2023-01-26T05:06:46.332Z,27.42
2023-01-26T05:09:13.488Z,27.23
2023-01-26T05:11:43.219Z,29.15
2023-01-26T05:14:29.159Z,24.95
2023-01-26T05:17:04.909Z,22.33
2023-01-26T05:19:55.262Z,21.70
2023-01-26T05:22:38.297Z,26.70
2023-01-26T05:25:24.596Z,26.48
2023-01-26T05:27:58.767Z,25.38
2023-01-26T05:30:25.956Z,25.83
2023-01-26T05:32:53.824Z,25.83
2023-01-26T05:35:21.888Z,24.05
2023-01-26T05:37:49.018Z,21.00
2023-01-26T05:40:16.685Z,25.40
2023-01-26T05:42:44.848Z,25.70
2023-01-26T05:45:40.912Z,25.35
2023-01-26T05:48:09.379Z,23.33
2023-01-26T05:50:36.836Z,23.83
2023-01-26T05:53:30.230Z,21.73
2023-01-26T05:55:57.484Z,46.33
2023-01-26T05:58:26.990Z,32.95
2023-01-26T06:00:54.483Z,35.05
2023-01-26T06:03:26.761Z,29.52
2023-01-26T06:05:55.349Z,36.40
2023-01-26T06:08:38.188Z,41.08
2023-01-26T06:11:28.203Z,43.50
2023-01-26T06:14:27.424Z,40.53
2023-01-26T06:16:56.831Z,34.90
2023-01-26T06:19:25.851Z,34.70
2023-01-26T06:21:57.536Z,34.75
2023-01-26T06:24:25.057Z,29.35
2023-01-26T06:26:52.737Z,30.33
2023-01-26T06:29:19.938Z,26.80
2023-01-26T06:31:47.274Z,26.40
2023-01-26T06:34:14.468Z,24.15
2023-01-26T06:36:42.772Z,29.88
2023-01-26T06:39:17.324Z,27.33
2023-01-26T06:41:45.156Z,37.30
2023-01-26T06:44:12.822Z,37.92
2023-01-26T06:46:40.407Z,36.08
2023-01-26T06:49:09.815Z,33.40
2023-01-26T06:51:46.417Z,23.30
2023-01-26T06:54:14.809Z,23.02
2023-01-26T06:57:02.330Z,20.48
2023-01-26T06:59:58.505Z,24.92
2023-01-26T07:02:33.857Z,26.25
2023-01-26T07:05:01.072Z,22.30
2023-01-26T07:07:28.212Z,30.67
2023-01-26T07:09:55.295Z,28.45
2023-01-26T07:12:22.451Z,26.92
2023-01-26T07:14:51.441Z,23.63
2023-01-26T07:17:19.520Z,29.23
2023-01-26T07:19:46.672Z,26.63
2023-01-26T07:22:14.892Z,27.35
2023-01-26T07:24:41.955Z,30.02
2023-01-26T07:27:09.049Z,28.75
2023-01-26T07:29:36.232Z,24.88
2023-01-26T07:32:03.423Z,23.27
2023-01-26T07:34:30.647Z,23.55
2023-01-26T07:36:57.738Z,25.38
2023-01-26T07:39:24.843Z,21.52
2023-01-26T07:41:52.172Z,23.23
2023-01-26T07:47:02.240Z,23.35
2023-01-26T07:49:29.332Z,24.80
2023-01-26T07:51:56.664Z,27.42
2023-01-26T07:54:23.816Z,25.25
2023-01-26T07:56:54.675Z,27.80
2023-01-26T07:59:22.602Z,24.42
2023-01-26T08:01:50.559Z,25.65
2023-01-26T08:04:18.745Z,27.38
2023-01-26T08:06:45.854Z,24.52
2023-01-26T08:09:13.080Z,26.73
2023-01-26T08:11:40.474Z,22.65
2023-01-26T08:14:07.646Z,25.83
2023-01-26T08:16:34.873Z,24.05
2023-01-26T08:19:03.028Z,23.42
2023-01-26T08:21:30.149Z,27.15
2023-01-26T08:24:01.921Z,26.42
2023-01-26T08:26:29.708Z,27.90
2023-01-26T08:28:57.101Z,30.02
2023-01-26T08:31:25.582Z,21.40
2023-01-26T08:33:54.469Z,25.70
2023-01-26T08:36:23.165Z,26.10
2023-01-26T08:38:51.160Z,24.42
2023-01-26T08:41:18.993Z,23.00
2023-01-26T08:43:46.043Z,23.42
2023-01-26T08:46:13.883Z,23.00
2023-01-26T08:48:40.945Z,23.13
2023-01-26T08:51:08.516Z,24.40
2023-01-26T08:53:37.443Z,24.27
2023-01-26T08:56:06.863Z,19.75
2023-01-26T08:58:34.567Z,25.15
2023-01-26T09:01:06.449Z,24.13
2023-01-26T09:03:33.859Z,23.08
2023-01-26T09:06:02.419Z,22.58
2023-01-26T09:08:29.528Z,27.10
2023-01-26T09:10:56.875Z,28.15
2023-01-26T09:13:24.340Z,25.33
2023-01-26T09:15:51.599Z,22.58
2023-01-26T09:18:18.746Z,29.40
2023-01-26T09:20:45.884Z,30.13
2023-01-26T09:23:13.292Z,25.77
2023-01-26T09:25:40.649Z,23.13
2023-01-26T09:28:07.834Z,29.42
2023-01-26T09:30:35.283Z,26.42
2023-01-26T09:33:04.499Z,28.27
2023-01-26T09:35:31.973Z,29.02
2023-01-26T09:37:59.012Z,31.70
2023-01-26T09:40:31.438Z,30.52
2023-01-26T09:43:01.881Z,26.95
2023-01-26T09:46:24.205Z,24.70
2023-01-26T09:49:02.050Z,29.10
2023-01-26T09:51:39.327Z,28.30
2023-01-26T09:54:24.611Z,27.50
2023-01-26T09:56:51.786Z,26.45
2023-01-26T09:59:50.467Z,23.23
2023-01-26T10:02:35.848Z,25.35
2023-01-26T10:05:12.053Z,23.30
2023-01-26T10:07:39.541Z,26.27
2023-01-26T10:10:07.692Z,29.20
2023-01-26T10:12:38.181Z,24.90
2023-01-26T10:15:16.764Z,25.38
2023-01-26T10:17:47.614Z,24.40
2023-01-26T10:20:14.803Z,22.13
2023-01-26T10:22:48.614Z,24.65
2023-01-26T10:25:20.788Z,27.88
2023-01-26T10:27:48.089Z,23.00
2023-01-26T10:30:16.821Z,27.38
2023-01-26T10:32:46.144Z,21.92
2023-01-26T10:35:22.564Z,27.20
2023-01-26T10:37:52.328Z,24.95
2023-01-26T10:40:20.328Z,30.52
2023-01-26T10:43:00.934Z,27.35
2023-01-26T10:45:33.672Z,27.80
2023-01-26T10:48:07.112Z,31.10
2023-01-26T10:50:34.335Z,33.25
2023-01-26T10:53:04.533Z,31.75
2023-01-26T10:55:33.970Z,29.02
2023-01-26T10:58:01.990Z,27.33
2023-01-26T11:00:32.912Z,25.77
2023-01-26T11:03:06.353Z,20.70
2023-01-26T11:05:33.760Z,20.67
2023-01-26T11:08:03.151Z,28.40
2023-01-26T11:10:32.333Z,26.80
2023-01-26T11:13:08.868Z,25.38
2023-01-26T11:15:41.261Z,22.85
2023-01-26T11:18:43.650Z,25.55
2023-01-26T11:21:20.397Z,29.17
2023-01-26T11:23:47.435Z,25.35
2023-01-26T11:26:35.806Z,27.25
2023-01-26T11:29:08.725Z,26.38
2023-01-26T11:34:25.028Z,26.67
2023-01-26T11:37:23.020Z,25.88
2023-01-26T11:39:58.994Z,29.52
2023-01-26T11:42:58.045Z,31.95
2023-01-26T11:45:45.335Z,27.77
2023-01-26T11:48:28.795Z,24.35
2023-01-26T11:51:05.776Z,24.58
2023-01-26T11:54:03.280Z,29.38
2023-01-26T11:56:50.447Z,26.42
2023-01-26T11:59:24.209Z,21.77
2023-01-26T12:02:02.556Z,28.48
2023-01-26T12:04:33.390Z,28.25
2023-01-26T12:07:27.429Z,26.83
2023-01-26T12:09:54.857Z,28.90
2023-01-26T12:12:31.374Z,28.35
2023-01-26T12:15:20.758Z,26.35
2023-01-26T12:18:11.832Z,31.45
2023-01-26T12:20:46.372Z,24.10
2023-01-26T12:23:38.301Z,23.15
2023-01-26T12:26:16.961Z,26.50
2023-01-26T12:28:50.941Z,29.95
2023-01-26T12:31:24.405Z,27.60
2023-01-26T12:33:54.904Z,26.15
2023-01-26T12:36:47.732Z,25.58
2023-01-26T12:39:40.453Z,27.73
2023-01-26T12:42:16.356Z,23.67
2023-01-26T12:45:04.904Z,27.17
2023-01-26T12:47:34.897Z,26.35
2023-01-26T12:50:22.010Z,25.13
2023-01-26T12:52:52.349Z,24.08
2023-01-26T12:55:30.831Z,24.80
2023-01-26T12:58:18.399Z,27.08
2023-01-26T13:01:13.809Z,28.13
2023-01-26T13:03:59.178Z,22.77
2023-01-26T13:06:29.036Z,25.85
2023-01-26T13:09:24.174Z,25.90
2023-01-26T13:11:57.093Z,27.92
2023-01-26T13:14:33.365Z,28.23
2023-01-26T13:17:15.741Z,107.05
2023-01-26T13:19:42.750Z,98.35
2023-01-26T13:22:19.106Z,30.63
2023-01-26T13:24:48.895Z,47.10
2023-01-26T13:27:40.224Z,118.93
2023-01-26T13:30:22.711Z,41.40
2023-01-26T13:32:49.853Z,42.22
2023-01-26T13:35:22.603Z,52.22
2023-01-26T13:40:21.869Z,31.80
2023-01-26T13:43:25.845Z,26.52
2023-01-26T13:46:03.284Z,28.02
2023-01-26T13:48:39.988Z,31.10
2023-01-26T13:51:12.561Z,36.85
2023-01-26T13:53:54.907Z,49.63
2023-01-26T13:56:40.027Z,32.60
2023-01-26T13:59:13.304Z,35.80
2023-01-26T14:01:54.950Z,32.92
2023-01-26T14:04:28.496Z,30.90
2023-01-26T14:07:06.775Z,47.53
2023-01-26T14:09:45.244Z,37.42
2023-01-26T14:12:23.807Z,38.90
2023-01-26T14:14:57.376Z,39.80
2023-01-26T14:17:33.633Z,41.63
2023-01-26T14:20:03.568Z,167.55
2023-01-26T14:22:31.043Z,106.47
2023-01-26T14:24:58.085Z,64.63
2023-01-26T14:27:38.599Z,44.80
2023-01-26T14:30:21.102Z,36.33
2023-01-26T14:32:49.132Z,37.08
2023-01-26T14:35:24.912Z,37.65
2023-01-26T14:38:06.418Z,33.60
2023-01-26T14:40:33.530Z,42.63
2023-01-26T14:43:00.773Z,54.85
2023-01-26T14:45:32.351Z,54.92
2023-01-26T14:48:04.330Z,42.95
2023-01-26T14:50:32.495Z,59.77
2023-01-26T14:53:01.613Z,42.38
2023-01-26T14:55:31.931Z,32.15
2023-01-26T14:58:01.189Z,34.72
2023-01-26T15:00:37.428Z,32.90
2023-01-26T15:03:26.920Z,28.40
2023-01-26T15:06:14.628Z,33.80
2023-01-26T15:08:42.897Z,39.75
2023-01-26T15:11:29.234Z,36.45
2023-01-26T15:13:56.641Z,35.25
2023-01-26T15:16:25.967Z,28.50
2023-01-26T15:19:01.812Z,36.42
2023-01-26T15:21:40.177Z,38.60
2023-01-26T15:24:13.926Z,35.72
2023-01-26T15:26:42.111Z,33.70
2023-01-26T15:29:26.561Z,30.73
2023-01-26T15:31:58.191Z,38.47
2023-01-26T15:34:34.735Z,33.83
2023-01-26T15:37:02.858Z,229.32
2023-01-26T15:39:30.441Z,392.70
2023-01-26T15:42:22.351Z,517.33
2023-01-26T15:44:49.388Z,445.23
2023-01-26T15:47:16.532Z,314.83
2023-01-26T15:49:43.637Z,296.35
2023-01-26T15:52:14.867Z,197.35
2023-01-26T15:54:42.148Z,161.15
2023-01-26T15:57:11.432Z,141.48
2023-01-26T15:59:39.557Z,42.28
2023-01-26T16:02:18.313Z,36.20
2023-01-26T16:04:46.217Z,26.27
2023-01-26T16:07:15.833Z,25.80
2023-01-26T16:09:43.049Z,23.50
2023-01-26T16:12:25.916Z,38.92
2023-01-26T16:14:58.096Z,39.92
2023-01-26T16:17:25.308Z,34.67
2023-01-26T16:19:52.506Z,34.10
2023-01-26T16:22:20.138Z,31.45
2023-01-26T16:24:47.479Z,31.75
2023-01-26T16:27:14.995Z,31.08
2023-01-26T16:29:42.494Z,32.47
2023-01-26T16:32:28.981Z,32.05
2023-01-26T16:34:56.225Z,38.97
2023-01-26T16:37:23.559Z,38.85
2023-01-26T16:39:51.032Z,44.25
2023-01-26T16:42:20.280Z,50.85
2023-01-26T16:44:48.050Z,79.03
2023-01-26T16:47:15.345Z,62.45
2023-01-26T16:49:42.540Z,57.42
2023-01-26T16:52:10.160Z,48.47
2023-01-26T16:54:37.434Z,48.65
2023-01-26T16:57:05.267Z,66.07
2023-01-26T16:59:33.320Z,76.72
2023-01-26T17:02:01.120Z,47.25
2023-01-26T17:04:28.779Z,42.55
2023-01-26T17:06:56.564Z,42.05
2023-01-26T17:09:25.244Z,46.67
2023-01-26T17:11:52.966Z,46.42
2023-01-26T17:14:20.248Z,54.25
2023-01-26T17:16:47.621Z,56.25
2023-01-26T17:19:14.979Z,54.00
2023-01-26T17:21:42.321Z,43.08
2023-01-26T17:24:10.163Z,43.75
2023-01-26T17:26:37.564Z,49.30
2023-01-26T17:29:05.170Z,44.95
2023-01-26T17:31:33.236Z,41.40
2023-01-26T17:34:00.896Z,41.05
2023-01-26T17:36:28.300Z,43.55
2023-01-26T17:38:55.653Z,46.20
2023-01-26T17:41:23.416Z,43.75
2023-01-26T17:43:51.662Z,42.53
2023-01-26T17:46:21.130Z,30.52
2023-01-26T17:48:49.450Z,34.85
2023-01-26T17:51:21.323Z,34.70
2023-01-26T17:53:49.970Z,37.63
2023-01-26T17:56:19.580Z,30.42
2023-01-26T17:58:53.464Z,35.95
2023-01-26T18:01:22.454Z,35.95
2023-01-26T18:03:50.259Z,43.72
2023-01-26T18:06:17.962Z,37.97
2023-01-26T18:08:46.023Z,39.63
2023-01-26T18:11:15.257Z,39.53
2023-01-26T18:13:45.453Z,37.80
2023-01-26T18:16:16.826Z,40.05
2023-01-26T18:18:44.898Z,33.13
2023-01-26T18:21:22.777Z,44.05
2023-01-26T18:23:52.385Z,44.30
2023-01-26T18:26:24.928Z,40.45
2023-01-26T18:28:53.060Z,39.80
2023-01-26T18:31:34.821Z,39.05
2023-01-26T18:34:05.506Z,41.63
2023-01-26T18:36:33.795Z,46.78
2023-01-26T18:39:04.122Z,46.53
2023-01-26T18:41:33.249Z,45.35
2023-01-26T18:44:04.010Z,38.20
2023-01-26T18:46:32.533Z,32.67
2023-01-26T18:49:03.851Z,39.15
2023-01-26T18:51:35.737Z,44.35
2023-01-26T18:54:04.787Z,42.20
2023-01-26T18:56:37.637Z,60.25
2023-01-26T19:01:33.489Z,32.97
2023-01-26T19:04:03.396Z,33.40
2023-01-26T19:06:33.210Z,28.38
2023-01-26T19:09:05.198Z,27.30
2023-01-26T19:11:38.275Z,27.40
2023-01-26T19:14:08.323Z,31.25
2023-01-26T19:16:36.736Z,27.05
2023-01-26T19:19:05.681Z,32.95
2023-01-26T19:21:34.311Z,29.80
2023-01-26T19:24:08.906Z,29.30
2023-01-26T19:26:36.992Z,31.33
2023-01-26T19:29:07.895Z,30.70
2023-01-26T19:31:36.507Z,28.20
2023-01-26T19:34:06.956Z,30.25
2023-01-26T19:36:37.545Z,28.02
2023-01-26T19:39:07.514Z,29.10
2023-01-26T19:41:35.344Z,73.07
2023-01-26T19:44:03.287Z,70.57
2023-01-26T19:46:31.523Z,68.38
2023-01-26T19:48:59.125Z,65.93
2023-01-26T19:51:29.317Z,52.05
2023-01-26T19:53:59.992Z,51.05
2023-01-26T19:56:32.952Z,47.28
2023-01-26T19:59:04.418Z,46.97
2023-01-26T20:01:33.563Z,51.80
2023-01-26T20:04:04.341Z,61.75
2023-01-26T20:06:35.668Z,49.05
2023-01-26T20:09:05.602Z,42.67
2023-01-26T20:11:34.481Z,39.72
2023-01-26T20:14:11.772Z,46.38
2023-01-26T20:16:42.133Z,62.20
2023-01-26T20:19:13.616Z,59.42
2023-01-26T20:21:41.654Z,51.63
2023-01-26T20:24:14.263Z,46.22
2023-01-26T20:29:17.697Z,49.45
2023-01-26T20:31:49.213Z,50.50
2023-01-26T20:34:18.104Z,51.95
2023-01-26T20:36:46.941Z,53.92
2023-01-26T20:39:18.128Z,55.72
2023-01-26T20:41:46.375Z,61.85
2023-01-26T20:44:14.565Z,63.13
2023-01-26T20:46:43.137Z,55.65
2023-01-26T20:49:14.592Z,49.10
2023-01-26T20:51:43.526Z,48.22
2023-01-26T20:54:13.367Z,43.35
2023-01-26T20:56:41.001Z,38.90
2023-01-26T20:59:11.855Z,41.90
2023-01-26T21:01:39.818Z,47.45
2023-01-26T21:04:07.914Z,46.58
2023-01-26T21:06:46.094Z,43.97
2023-01-26T21:09:13.602Z,46.22
2023-01-26T21:11:41.282Z,48.88
2023-01-26T21:14:13.317Z,40.88
2023-01-26T21:16:41.083Z,40.90
2023-01-26T21:19:08.617Z,41.50
2023-01-26T21:21:36.136Z,39.40
2023-01-26T21:24:05.070Z,36.97
2023-01-26T21:26:33.045Z,32.83
2023-01-26T21:29:00.917Z,31.95
2023-01-26T21:31:30.819Z,35.20
2023-01-26T21:34:00.495Z,32.88
2023-01-26T21:36:31.379Z,34.10
2023-01-26T21:39:00.496Z,34.95
2023-01-26T21:41:55.039Z,40.58
2023-01-26T21:44:32.891Z,37.30
2023-01-26T21:47:03.734Z,38.47
2023-01-26T21:49:31.138Z,38.25
2023-01-26T21:52:17.507Z,41.53
2023-01-26T21:54:44.723Z,37.17
2023-01-26T21:57:30.879Z,39.70
2023-01-26T21:59:58.003Z,43.78
2023-01-26T22:02:25.116Z,40.92
2023-01-26T22:04:52.504Z,43.97
2023-01-26T22:07:19.644Z,50.35
2023-01-26T22:09:46.866Z,52.85
2023-01-26T22:12:13.951Z,49.03
2023-01-26T22:14:41.053Z,56.47
2023-01-26T22:17:08.152Z,55.25
2023-01-26T22:19:35.427Z,57.28
2023-01-26T22:22:03.601Z,52.85
2023-01-26T22:24:31.124Z,52.15
2023-01-26T22:26:58.287Z,48.35
2023-01-26T22:29:25.693Z,45.80
2023-01-26T22:31:53.282Z,37.97
2023-01-26T22:34:20.417Z,36.17
2023-01-26T22:36:47.798Z,39.83
2023-01-26T22:39:15.071Z,37.42
2023-01-26T22:41:42.212Z,35.65
2023-01-26T22:44:09.472Z,32.05
2023-01-26T22:46:37.294Z,36.47
2023-01-26T22:49:07.280Z,29.95
2023-01-26T22:51:37.534Z,36.25
2023-01-26T22:54:06.569Z,32.90
2023-01-26T22:56:34.315Z,32.55
2023-01-26T22:59:01.681Z,34.67
2023-01-26T23:01:30.409Z,32.20
2023-01-26T23:03:58.913Z,38.50
2023-01-26T23:06:26.964Z,37.75
2023-01-26T23:08:55.183Z,36.05
2023-01-26T23:11:25.448Z,40.97
2023-01-26T23:13:55.103Z,40.92
2023-01-26T23:16:23.993Z,37.85
2023-01-26T23:18:52.543Z,35.95
2023-01-26T23:21:20.360Z,36.90
2023-01-26T23:23:47.950Z,32.17
2023-01-26T23:26:15.765Z,36.95
2023-01-26T23:28:44.400Z,30.73
2023-01-26T23:31:13.497Z,39.38
2023-01-26T23:33:41.109Z,40.05
2023-01-26T23:36:09.900Z,38.08
2023-01-26T23:38:37.269Z,37.67
2023-01-26T23:41:05.586Z,36.45
2023-01-26T23:43:33.450Z,34.75
2023-01-26T23:46:01.555Z,35.88
2023-01-26T23:48:29.159Z,42.92
2023-01-26T23:50:58.148Z,34.15
2023-01-26T23:53:25.730Z,33.03
2023-01-26T23:55:53.374Z,29.27
2023-01-26T23:58:21.074Z,34.78
